createdAt,value
2022-08-18T00:00:56.240Z,5.20
2022-08-18T00:06:18.329Z,5.53
2022-08-18T00:11:43.594Z,5.53
2022-08-18T00:17:05.447Z,5.22
2022-08-18T00:22:27.154Z,5.50
2022-08-18T00:27:49.366Z,5.28
2022-08-18T00:33:11.102Z,5.05
2022-08-18T00:38:32.799Z,5.20
2022-08-18T00:43:55.532Z,5.43
2022-08-18T00:49:18.323Z,5.60
2022-08-18T00:54:41.729Z,5.03
2022-08-18T01:00:11.993Z,5.22
2022-08-18T01:05:45.645Z,4.88
2022-08-18T01:11:07.801Z,5.28
2022-08-18T01:16:53.140Z,4.30
2022-08-18T01:22:25.477Z,5.40
2022-08-18T01:27:47.239Z,6.35
2022-08-18T01:33:10.511Z,5.65
2022-08-18T01:38:32.214Z,5.60
2022-08-18T01:43:53.938Z,5.60
2022-08-18T01:49:15.683Z,5.18
2022-08-18T01:54:37.541Z,5.35
2022-08-18T02:00:01.062Z,7.10
2022-08-18T02:05:31.524Z,5.40
2022-08-18T02:10:53.340Z,5.03
2022-08-18T02:16:16.785Z,5.32
2022-08-18T02:21:38.690Z,5.32
2022-08-18T02:27:00.764Z,6.32
2022-08-18T02:32:22.498Z,4.78
2022-08-18T02:37:48.563Z,5.65
2022-08-18T02:43:10.323Z,4.63
2022-08-18T02:48:34.658Z,5.88
2022-08-18T02:53:59.586Z,5.03
2022-08-18T02:59:27.537Z,5.07
2022-08-18T03:04:49.275Z,9.73
2022-08-18T03:10:32.743Z,6.50
2022-08-18T03:15:56.859Z,5.07
2022-08-18T03:21:21.649Z,5.57
2022-08-18T03:26:45.111Z,5.25
2022-08-18T03:32:08.612Z,5.43
2022-08-18T03:37:30.294Z,5.72
2022-08-18T03:42:52.131Z,5.38
2022-08-18T03:48:13.966Z,6.18
2022-08-18T03:53:37.174Z,4.63
2022-08-18T03:59:04.826Z,5.50
2022-08-18T04:04:28.606Z,5.78
2022-08-18T04:09:50.390Z,5.35
2022-08-18T04:15:12.195Z,6.63
2022-08-18T04:20:35.449Z,5.40
2022-08-18T04:26:02.046Z,5.00
2022-08-18T04:31:24.738Z,5.57
2022-08-18T04:36:46.833Z,7.50
2022-08-18T04:42:08.757Z,5.50
2022-08-18T04:47:30.486Z,6.00
2022-08-18T04:53:11.027Z,5.55
2022-08-18T04:58:32.769Z,5.85
2022-08-18T05:03:56.310Z,6.90
2022-08-18T05:09:22.956Z,5.13
2022-08-18T05:14:45.678Z,5.80
2022-08-18T05:20:08.811Z,8.60
2022-08-18T05:25:30.563Z,6.78
2022-08-18T05:30:52.463Z,10.20
2022-08-18T05:36:26.169Z,7.00
2022-08-18T05:41:54.350Z,7.47
2022-08-18T05:47:29.522Z,5.88
2022-08-18T05:52:58.216Z,6.28
2022-08-18T05:58:33.324Z,11.45
2022-08-18T06:04:05.871Z,6.65
2022-08-18T06:09:43.574Z,7.28
2022-08-18T06:15:22.544Z,6.38
2022-08-18T06:21:22.257Z,5.93
2022-08-18T06:27:19.354Z,7.55
2022-08-18T06:33:18.307Z,8.45
2022-08-18T06:39:03.124Z,7.55
2022-08-18T06:44:49.043Z,8.52
2022-08-18T06:50:29.565Z,8.00
2022-08-18T06:55:51.778Z,10.48
2022-08-18T07:01:17.730Z,9.93
2022-08-18T07:06:39.470Z,9.40
2022-08-18T07:12:09.857Z,7.88
2022-08-18T07:17:42.716Z,8.93
2022-08-18T07:23:08.341Z,8.32
2022-08-18T07:28:36.744Z,8.25
2022-08-18T07:34:05.092Z,9.75
2022-08-18T07:39:48.435Z,10.90
2022-08-18T07:45:30.092Z,9.32
2022-08-18T07:51:05.306Z,8.63
2022-08-18T07:57:01.257Z,7.20
2022-08-18T08:02:26.845Z,7.80
2022-08-18T08:07:57.899Z,5.90
2022-08-18T08:13:54.228Z,6.00
2022-08-18T08:19:59.028Z,7.53
2022-08-18T08:25:45.263Z,6.32
2022-08-18T08:31:38.215Z,6.28
2022-08-18T08:37:12.507Z,6.93
2022-08-18T08:42:41.805Z,6.10
2022-08-18T08:48:20.431Z,5.90
2022-08-18T08:53:58.212Z,6.20
2022-08-18T08:59:22.758Z,9.10
2022-08-18T09:05:09.139Z,10.27
2022-08-18T09:10:48.270Z,6.80
2022-08-18T09:16:27.642Z,7.95
2022-08-18T09:22:45.497Z,8.48
2022-08-18T09:28:15.397Z,8.25
2022-08-18T09:33:46.335Z,5.50
2022-08-18T09:39:54.894Z,7.00
2022-08-18T09:45:33.347Z,10.88
2022-08-18T09:51:32.420Z,9.63
2022-08-18T09:57:09.346Z,7.55
2022-08-18T10:08:28.062Z,10.95
2022-08-18T10:14:13.835Z,6.40
2022-08-18T10:20:26.676Z,9.48
2022-08-18T10:25:48.880Z,8.40
2022-08-18T10:31:10.738Z,9.70
2022-08-18T10:36:47.720Z,9.25
2022-08-18T10:42:11.119Z,7.30
2022-08-18T10:47:37.174Z,8.40
2022-08-18T10:59:47.736Z,9.50
2022-08-18T11:05:18.386Z,7.47
2022-08-18T11:17:07.045Z,8.70
2022-08-18T11:22:34.154Z,7.78
2022-08-18T11:27:57.881Z,9.65
2022-08-18T11:33:24.531Z,9.55
2022-08-18T11:38:56.579Z,7.45
2022-08-18T11:44:26.416Z,13.48
2022-08-18T11:50:10.360Z,8.10
2022-08-18T11:55:34.296Z,9.20
2022-08-18T12:01:01.652Z,9.52
2022-08-18T12:06:29.907Z,10.68
2022-08-18T12:11:56.484Z,8.05
2022-08-18T12:17:19.874Z,8.30
2022-08-18T12:22:44.305Z,7.05
2022-08-18T12:28:11.134Z,7.20
2022-08-18T12:33:34.575Z,8.15
2022-08-18T12:39:09.800Z,9.75
2022-08-18T12:44:31.533Z,7.97
2022-08-18T12:49:53.706Z,7.45
2022-08-18T12:55:21.752Z,7.88
2022-08-18T13:00:44.362Z,8.02
2022-08-18T13:06:06.433Z,9.25
2022-08-18T13:11:29.790Z,8.98
2022-08-18T13:16:53.791Z,8.57
2022-08-18T13:22:16.826Z,8.88
2022-08-18T13:27:39.394Z,7.25
2022-08-18T13:33:34.381Z,7.63
2022-08-18T13:38:54.462Z,6.95
2022-08-18T13:44:18.865Z,11.65
2022-08-18T13:49:41.584Z,8.57
2022-08-18T13:55:21.197Z,6.95
2022-08-18T14:00:42.997Z,6.97
2022-08-18T14:06:07.005Z,6.93
2022-08-18T14:11:33.477Z,5.30
2022-08-18T14:16:55.317Z,6.38
2022-08-18T14:22:36.981Z,7.03
2022-08-18T14:27:59.110Z,8.70
2022-08-18T14:33:34.253Z,5.55
2022-08-18T14:39:10.185Z,6.38
2022-08-18T14:44:32.836Z,6.72
2022-08-18T14:49:57.125Z,5.20
2022-08-18T14:55:19.339Z,5.80
2022-08-18T15:00:53.876Z,5.40
2022-08-18T15:06:17.243Z,7.72
2022-08-18T15:11:44.914Z,5.28
2022-08-18T15:17:11.721Z,5.30
2022-08-18T15:23:18.018Z,7.88
2022-08-18T15:28:45.232Z,6.18
2022-08-18T15:34:07.626Z,5.68
2022-08-18T15:39:34.518Z,5.22
2022-08-18T15:44:56.775Z,5.65
2022-08-18T15:50:21.963Z,6.82
2022-08-18T15:55:50.226Z,5.82
2022-08-18T16:01:30.633Z,5.57
2022-08-18T16:06:56.081Z,10.00
2022-08-18T16:12:17.859Z,6.35
2022-08-18T16:17:39.571Z,11.20
2022-08-18T16:23:01.364Z,6.10
2022-08-18T16:28:35.057Z,6.55
2022-08-18T16:33:57.847Z,6.65
2022-08-18T16:39:19.634Z,8.07
2022-08-18T16:44:42.176Z,5.40
2022-08-18T16:50:05.787Z,4.88
2022-08-18T16:55:27.911Z,5.47
2022-08-18T17:01:09.963Z,5.85
2022-08-18T17:06:35.355Z,9.95
2022-08-18T17:12:09.146Z,6.63
2022-08-18T17:17:31.676Z,7.00
2022-08-18T17:22:53.632Z,14.60
2022-08-18T17:28:18.835Z,6.05
2022-08-18T17:33:45.533Z,6.20
2022-08-18T17:39:11.422Z,6.68
2022-08-18T17:44:52.028Z,6.05
2022-08-18T17:50:45.746Z,5.95
2022-08-18T17:56:21.109Z,6.82
2022-08-18T18:01:43.668Z,7.38
2022-08-18T18:07:05.959Z,11.20
2022-08-18T18:12:30.886Z,8.65
2022-08-18T18:17:52.697Z,9.35
2022-08-18T18:23:19.303Z,10.10
2022-08-18T18:28:41.012Z,9.13
2022-08-18T18:34:06.933Z,9.07
2022-08-18T18:39:55.309Z,10.07
2022-08-18T18:45:27.593Z,9.07
2022-08-18T18:51:06.419Z,8.73
2022-08-18T18:56:45.599Z,10.07
2022-08-18T19:02:36.583Z,9.68
2022-08-18T19:09:03.185Z,10.35
2022-08-18T19:14:31.989Z,10.40
2022-08-18T19:20:00.509Z,11.15
2022-08-18T19:25:41.281Z,12.80
2022-08-18T19:31:28.607Z,10.00
2022-08-18T19:37:14.515Z,12.52
2022-08-18T19:42:54.438Z,12.48
2022-08-18T19:48:29.845Z,11.95
2022-08-18T19:54:18.984Z,11.65
2022-08-18T19:59:43.681Z,10.55
2022-08-18T20:05:22.604Z,12.63
2022-08-18T20:10:50.949Z,11.05
2022-08-18T20:16:28.563Z,10.32
2022-08-18T20:22:15.888Z,10.13
2022-08-18T20:27:44.478Z,11.80
2022-08-18T20:33:11.211Z,11.48
2022-08-18T20:38:45.528Z,11.57
2022-08-18T20:44:29.247Z,9.68
2022-08-18T20:50:33.533Z,9.82
2022-08-18T20:56:31.595Z,9.77
2022-08-18T21:02:08.528Z,9.30
2022-08-18T21:07:36.298Z,9.27
2022-08-18T21:13:02.230Z,8.35
2022-08-18T21:18:25.333Z,8.73
2022-08-18T21:23:53.109Z,9.00
2022-08-18T21:29:16.283Z,8.95
2022-08-18T21:34:45.050Z,9.38
2022-08-18T21:40:07.780Z,10.13
2022-08-18T21:45:29.746Z,11.07
2022-08-18T21:50:58.112Z,10.70
2022-08-18T21:56:31.384Z,10.93
2022-08-18T22:01:56.544Z,10.05
2022-08-18T22:07:34.663Z,9.73
2022-08-18T22:13:16.888Z,11.25
2022-08-18T22:18:39.733Z,10.65
2022-08-18T22:24:19.710Z,11.82
2022-08-18T22:30:04.454Z,11.02
2022-08-18T22:35:27.727Z,14.07
2022-08-18T22:40:49.941Z,11.07
2022-08-18T22:46:11.877Z,13.43
2022-08-18T22:51:42.617Z,13.73
2022-08-18T22:57:04.697Z,13.80
2022-08-18T23:02:28.349Z,11.52
2022-08-18T23:07:50.535Z,11.98
2022-08-18T23:13:12.364Z,12.90
2022-08-18T23:18:34.143Z,15.15
2022-08-18T23:23:56.537Z,12.77
2022-08-18T23:29:20.779Z,13.02
2022-08-18T23:34:42.557Z,12.75
2022-08-18T23:40:05.002Z,12.73
2022-08-18T23:45:27.825Z,12.48
2022-08-18T23:50:49.634Z,14.18
2022-08-18T23:56:11.371Z,13.40
